Iron, Minnesota
Current Conditions -  °F | °C
As of 7:11 PM on Saturday 22 Nov 2014 (Local Time) from KEVM Reporting Station
Haze Haze  
Wind Chill: 27°   Ceiling: 700
Heat Index: 32°   Visibility: 5mi
Dew Point: 30°   Wind: 5mph
Humidity: 93%   Direction: 150°SSE
Pressure: 29.59"   Gusts: NA
Location:  47.41°N, 92.65°W
Report Text: KEVM 230111Z AUTO 15004KT 5SM BR OVC007 00/M01 A2959 RMK AO2
Loading
Personal Weather Stations






























Interactive Weather Map New forecast layout! Learn more

10-Day Weather Forecast

Advertisements
Track Severe Weather on mobile